createdAt,value
2022-11-29T00:02:02.824Z,18.70
2022-11-29T00:04:48.282Z,17.38
2022-11-29T00:07:34.713Z,18.35
2022-11-29T00:10:21.221Z,17.83
2022-11-29T00:13:07.552Z,17.48
2022-11-29T00:15:52.849Z,17.42
2022-11-29T00:18:38.610Z,16.77
2022-11-29T00:21:25.429Z,17.17
2022-11-29T00:24:11.229Z,16.40
2022-11-29T00:26:57.610Z,18.27
2022-11-29T00:29:43.392Z,16.70
2022-11-29T00:32:29.238Z,17.10
2022-11-29T00:35:15.101Z,16.80
2022-11-29T00:38:00.828Z,16.40
2022-11-29T00:40:51.735Z,16.27
2022-11-29T00:43:38.237Z,16.42
2022-11-29T00:46:24.125Z,17.02
2022-11-29T00:49:10.247Z,16.02
2022-11-29T00:51:56.407Z,16.30
2022-11-29T00:54:43.514Z,16.83
2022-11-29T00:57:29.323Z,15.68
2022-11-29T01:00:15.457Z,16.52
2022-11-29T01:03:02.217Z,16.23
2022-11-29T01:05:49.330Z,20.48
2022-11-29T01:08:36.332Z,16.47
2022-11-29T01:11:24.733Z,16.10
2022-11-29T01:14:11.991Z,16.13
2022-11-29T01:16:57.765Z,15.95
2022-11-29T01:19:49.332Z,16.50
2022-11-29T01:22:37.518Z,16.55
2022-11-29T01:25:23.412Z,17.60
2022-11-29T01:28:08.999Z,17.33
2022-11-29T01:30:55.670Z,16.90
2022-11-29T01:33:42.634Z,16.17
2022-11-29T01:36:29.253Z,16.30
2022-11-29T01:39:15.017Z,18.05
2022-11-29T01:42:02.323Z,15.73
2022-11-29T01:45:01.427Z,17.80
2022-11-29T01:47:51.538Z,15.30
2022-11-29T01:50:39.687Z,18.38
2022-11-29T01:53:25.701Z,17.00
2022-11-29T01:56:15.718Z,15.77
2022-11-29T01:59:05.395Z,14.60
2022-11-29T02:01:52.055Z,14.77
2022-11-29T02:04:39.453Z,16.23
2022-11-29T02:07:25.767Z,15.65
2022-11-29T02:10:12.017Z,15.33
2022-11-29T02:13:22.970Z,17.13
2022-11-29T02:16:18.338Z,15.75
2022-11-29T02:19:21.691Z,15.68
2022-11-29T02:22:20.374Z,15.27
2022-11-29T02:25:36.253Z,16.07
2022-11-29T02:28:25.227Z,16.75
2022-11-29T02:31:43.584Z,16.13
2022-11-29T02:34:35.063Z,16.70
2022-11-29T02:37:47.821Z,15.05
2022-11-29T02:41:04.219Z,16.17
2022-11-29T02:44:19.043Z,16.73
2022-11-29T02:47:23.273Z,15.38
2022-11-29T02:50:33.244Z,15.57
2022-11-29T02:53:38.053Z,16.10
2022-11-29T02:56:43.289Z,15.38
2022-11-29T02:59:37.530Z,15.32
2022-11-29T03:02:45.677Z,16.15
2022-11-29T03:06:09.238Z,16.23
2022-11-29T03:09:07.788Z,15.52
2022-11-29T03:12:07.694Z,15.50
2022-11-29T03:15:11.403Z,15.27
2022-11-29T03:18:00.155Z,15.63
2022-11-29T03:21:06.279Z,15.37
2022-11-29T03:23:57.131Z,15.65
2022-11-29T03:26:48.703Z,15.47
2022-11-29T03:29:42.837Z,18.65
2022-11-29T03:32:47.989Z,17.67
2022-11-29T03:35:51.879Z,15.82
2022-11-29T03:38:47.069Z,15.88
2022-11-29T03:41:45.273Z,15.48
2022-11-29T03:44:51.068Z,17.70
2022-11-29T03:47:54.925Z,15.82
2022-11-29T03:50:53.735Z,15.25
2022-11-29T03:53:49.266Z,15.43
2022-11-29T03:56:38.005Z,16.27
2022-11-29T03:59:39.207Z,16.83
2022-11-29T04:02:42.952Z,17.13
2022-11-29T04:05:57.265Z,16.97
2022-11-29T04:09:01.566Z,17.20
2022-11-29T04:11:59.984Z,15.63
2022-11-29T04:15:15.616Z,16.92
2022-11-29T04:18:22.395Z,16.60
2022-11-29T04:21:33.796Z,18.40
2022-11-29T04:24:37.545Z,17.65
2022-11-29T04:27:55.941Z,16.33
2022-11-29T04:31:09.303Z,18.13
2022-11-29T04:34:19.166Z,17.08
2022-11-29T04:37:09.166Z,17.10
2022-11-29T04:40:08.492Z,17.10
2022-11-29T04:43:33.095Z,16.77
2022-11-29T04:46:49.678Z,16.83
2022-11-29T04:50:07.829Z,16.70
2022-11-29T04:53:03.589Z,18.27
2022-11-29T04:55:54.847Z,16.98
2022-11-29T04:59:12.269Z,15.02
2022-11-29T05:02:41.842Z,16.60
2022-11-29T05:06:02.873Z,15.43
2022-11-29T05:09:21.821Z,15.80
2022-11-29T05:12:10.766Z,15.38
2022-11-29T05:15:26.831Z,16.30
2022-11-29T05:18:41.730Z,16.73
2022-11-29T05:21:36.804Z,16.92
2022-11-29T05:24:56.923Z,16.77
2022-11-29T05:28:12.019Z,16.73
2022-11-29T05:31:20.049Z,16.40
2022-11-29T05:34:21.362Z,16.52
2022-11-29T05:37:18.989Z,16.23
2022-11-29T05:40:13.633Z,16.67
2022-11-29T05:43:05.529Z,15.53
2022-11-29T05:46:07.986Z,17.08
2022-11-29T05:49:12.661Z,15.73
2022-11-29T05:52:30.608Z,15.90
2022-11-29T05:55:42.310Z,17.02
2022-11-29T05:58:35.510Z,19.25
2022-11-29T06:01:43.658Z,15.77
2022-11-29T06:04:56.066Z,14.68
2022-11-29T06:07:51.652Z,17.17
2022-11-29T06:10:40.333Z,15.63
2022-11-29T06:13:36.174Z,16.25
2022-11-29T06:16:42.582Z,15.27
2022-11-29T06:19:34.813Z,15.25
2022-11-29T06:22:32.783Z,17.92
2022-11-29T06:25:53.377Z,17.58
2022-11-29T06:28:42.961Z,16.53
2022-11-29T06:31:38.433Z,17.48
2022-11-29T06:34:38.664Z,17.80
2022-11-29T06:37:31.254Z,16.92
2022-11-29T06:40:18.331Z,16.40
2022-11-29T06:43:04.106Z,16.55
2022-11-29T06:45:53.023Z,16.55
2022-11-29T06:49:03.860Z,16.17
2022-11-29T06:52:06.257Z,17.52
2022-11-29T06:55:15.537Z,15.85
2022-11-29T06:58:06.641Z,17.20
2022-11-29T07:00:58.560Z,15.77
2022-11-29T07:04:38.062Z,16.52
2022-11-29T07:07:27.128Z,16.80
2022-11-29T07:10:17.209Z,17.30
2022-11-29T07:13:03.930Z,16.60
2022-11-29T07:16:10.992Z,17.30
2022-11-29T07:19:15.198Z,17.20
2022-11-29T07:22:26.419Z,16.50
2022-11-29T07:25:31.504Z,17.38
2022-11-29T07:28:39.287Z,16.92
2022-11-29T07:31:40.798Z,17.90
2022-11-29T07:34:35.521Z,17.52
2022-11-29T07:37:30.729Z,19.70
2022-11-29T07:40:39.544Z,17.98
2022-11-29T07:44:03.869Z,18.13
2022-11-29T07:46:49.572Z,19.30
2022-11-29T07:49:35.726Z,17.33
2022-11-29T07:52:21.794Z,18.13
2022-11-29T07:55:18.897Z,18.60
2022-11-29T07:58:05.746Z,18.00
2022-11-29T08:00:51.893Z,19.15
2022-11-29T08:03:37.933Z,20.55
2022-11-29T08:06:25.846Z,18.25
2022-11-29T08:09:12.399Z,17.17
2022-11-29T08:11:58.315Z,20.65
2022-11-29T08:14:44.439Z,18.90
2022-11-29T08:17:30.073Z,17.80
2022-11-29T08:20:16.743Z,17.40
2022-11-29T08:23:03.490Z,18.27
2022-11-29T08:25:49.556Z,21.10
2022-11-29T08:28:35.322Z,17.63
2022-11-29T08:31:21.663Z,19.75
2022-11-29T08:34:11.370Z,20.20
2022-11-29T08:36:57.479Z,19.67
2022-11-29T08:39:47.021Z,19.95
2022-11-29T08:42:33.312Z,19.90
2022-11-29T08:45:19.335Z,16.73
2022-11-29T08:48:05.647Z,18.27
2022-11-29T08:50:54.701Z,17.08
2022-11-29T08:53:43.684Z,31.00
2022-11-29T08:57:16.622Z,41.17
2022-11-29T08:59:36.038Z,24.92
2022-11-29T09:02:22.199Z,19.73
2022-11-29T09:05:09.241Z,17.90
2022-11-29T09:07:55.847Z,21.10
2022-11-29T09:10:42.970Z,17.23
2022-11-29T09:13:28.807Z,18.02
2022-11-29T09:16:18.498Z,17.92
2022-11-29T09:19:06.224Z,16.70
2022-11-29T09:21:52.592Z,21.73
2022-11-29T09:24:38.515Z,18.10
2022-11-29T09:27:23.902Z,18.33
2022-11-29T09:30:11.492Z,19.95
2022-11-29T09:33:05.080Z,18.42
2022-11-29T09:35:51.146Z,17.27
2022-11-29T09:38:37.772Z,18.50
2022-11-29T09:41:48.776Z,18.67
2022-11-29T09:44:54.470Z,17.33
2022-11-29T09:48:18.708Z,16.50
2022-11-29T09:51:26.493Z,15.27
2022-11-29T09:54:26.454Z,15.65
2022-11-29T09:57:14.108Z,15.77
2022-11-29T10:00:05.477Z,15.95
2022-11-29T10:03:01.390Z,17.95
2022-11-29T10:05:57.506Z,16.38
2022-11-29T10:08:53.522Z,16.48
2022-11-29T10:12:03.412Z,16.70
2022-11-29T10:14:57.448Z,17.48
2022-11-29T10:18:29.141Z,15.15
2022-11-29T10:21:19.726Z,15.03
2022-11-29T10:24:13.423Z,14.02
2022-11-29T10:26:59.408Z,15.10
2022-11-29T10:29:49.117Z,13.93
2022-11-29T10:32:38.593Z,12.93
2022-11-29T10:35:25.578Z,15.35
2022-11-29T10:41:22.962Z,13.23
2022-11-29T10:44:15.240Z,14.30
2022-11-29T10:47:10.786Z,14.13
2022-11-29T10:49:57.277Z,13.55
2022-11-29T10:52:42.880Z,13.77
2022-11-29T10:55:34.950Z,12.85
2022-11-29T10:58:28.603Z,12.73
2022-11-29T11:01:17.507Z,14.98
2022-11-29T11:04:07.454Z,12.15
2022-11-29T11:07:01.198Z,12.77
2022-11-29T11:09:53.431Z,10.27
2022-11-29T11:12:39.845Z,11.73
2022-11-29T11:15:30.581Z,12.30
2022-11-29T11:18:25.635Z,11.75
2022-11-29T11:21:18.231Z,10.23
2022-11-29T11:24:05.087Z,11.73
2022-11-29T11:26:51.522Z,9.75
2022-11-29T11:29:44.547Z,9.98
2022-11-29T11:32:30.303Z,9.15
2022-11-29T11:35:23.922Z,10.70
2022-11-29T11:38:17.443Z,9.35
2022-11-29T11:41:13.578Z,9.60
2022-11-29T11:44:01.013Z,9.70
2022-11-29T11:46:49.992Z,10.10
2022-11-29T11:49:46.029Z,10.30
2022-11-29T11:52:59.635Z,7.97
2022-11-29T11:55:55.601Z,7.65
2022-11-29T11:58:54.482Z,11.47
2022-11-29T12:01:40.430Z,10.93
2022-11-29T12:04:34.464Z,8.50
2022-11-29T12:07:51.955Z,8.88
2022-11-29T12:10:36.186Z,9.15
2022-11-29T12:13:28.344Z,8.68
2022-11-29T12:16:27.392Z,9.73
2022-11-29T12:19:21.031Z,9.10
2022-11-29T12:22:14.344Z,8.52
2022-11-29T12:25:09.079Z,7.90
2022-11-29T12:27:54.824Z,8.45
2022-11-29T12:31:06.109Z,7.80
2022-11-29T12:34:20.975Z,7.93
2022-11-29T12:37:28.867Z,7.13
2022-11-29T12:40:37.816Z,8.00
2022-11-29T12:43:36.573Z,6.72
2022-11-29T12:46:27.947Z,6.55
2022-11-29T12:49:44.350Z,6.97
2022-11-29T12:52:45.192Z,7.50
2022-11-29T12:55:34.565Z,9.07
2022-11-29T12:58:31.762Z,7.10
2022-11-29T13:01:36.048Z,7.10
2022-11-29T13:04:46.096Z,8.63
2022-11-29T13:07:44.714Z,8.35
2022-11-29T13:10:39.443Z,8.88
2022-11-29T13:13:50.190Z,9.15
2022-11-29T13:16:53.002Z,10.73
2022-11-29T13:19:51.125Z,9.23
2022-11-29T13:23:45.989Z,9.23
2022-11-29T13:26:43.493Z,9.82
2022-11-29T13:29:29.618Z,8.40
2022-11-29T13:32:33.846Z,8.73
2022-11-29T13:35:36.302Z,8.93
2022-11-29T13:38:42.708Z,8.07
2022-11-29T13:42:08.655Z,8.03
2022-11-29T13:45:19.944Z,9.17
2022-11-29T13:48:28.373Z,8.00
2022-11-29T13:51:33.981Z,8.10
2022-11-29T13:54:31.641Z,10.13
2022-11-29T13:57:18.302Z,39.77
2022-11-29T14:00:05.808Z,17.25
2022-11-29T14:02:51.965Z,9.02
2022-11-29T14:05:39.992Z,9.60
2022-11-29T14:08:55.186Z,8.57
2022-11-29T14:11:43.189Z,9.55
2022-11-29T14:14:49.365Z,8.27
2022-11-29T14:17:46.688Z,8.45
2022-11-29T14:20:32.647Z,9.90
2022-11-29T14:23:32.648Z,8.73
2022-11-29T14:26:28.520Z,9.07
2022-11-29T14:29:55.199Z,8.85
2022-11-29T14:33:04.469Z,8.95
2022-11-29T14:36:04.299Z,9.20
2022-11-29T14:42:20.980Z,9.07
2022-11-29T14:45:22.778Z,8.90
2022-11-29T14:48:26.894Z,9.27
2022-11-29T14:51:16.395Z,9.77
2022-11-29T14:54:14.857Z,8.80
2022-11-29T14:57:39.791Z,8.05
2022-11-29T15:00:36.321Z,9.90
2022-11-29T15:03:37.785Z,8.07
2022-11-29T15:06:26.902Z,8.52
2022-11-29T15:09:20.000Z,8.32
2022-11-29T15:12:09.757Z,8.30
2022-11-29T15:15:21.797Z,8.17
2022-11-29T15:18:40.577Z,10.48
2022-11-29T15:21:46.060Z,9.23
2022-11-29T15:24:31.948Z,7.32
2022-11-29T15:27:18.223Z,8.40
2022-11-29T15:30:41.282Z,9.40
2022-11-29T15:33:29.591Z,9.30
2022-11-29T15:36:24.207Z,9.90
2022-11-29T15:39:34.842Z,9.75
2022-11-29T15:42:20.374Z,10.13
2022-11-29T15:45:28.370Z,10.40
2022-11-29T15:48:26.420Z,8.85
2022-11-29T15:51:34.308Z,10.32
2022-11-29T15:54:31.406Z,9.68
2022-11-29T15:57:29.259Z,10.15
2022-11-29T16:00:21.606Z,9.10
2022-11-29T16:03:17.533Z,9.17
2022-11-29T16:06:17.805Z,9.73
2022-11-29T16:09:06.844Z,9.63
2022-11-29T16:11:53.162Z,19.98
2022-11-29T16:14:56.563Z,10.02
2022-11-29T16:17:42.484Z,11.30
2022-11-29T16:20:28.811Z,12.15
2022-11-29T16:23:15.592Z,9.00
2022-11-29T16:26:13.874Z,9.88
2022-11-29T16:29:00.307Z,8.07
2022-11-29T16:31:45.997Z,8.70
2022-11-29T16:34:33.860Z,8.32
2022-11-29T16:37:25.583Z,8.52
2022-11-29T16:40:21.487Z,9.70
2022-11-29T16:43:19.793Z,8.63
2022-11-29T16:46:30.531Z,10.05
2022-11-29T16:49:34.856Z,11.32
2022-11-29T16:52:27.627Z,9.25
2022-11-29T16:55:14.922Z,10.20
2022-11-29T16:58:04.502Z,11.65
2022-11-29T17:00:50.874Z,8.88
2022-11-29T17:03:36.844Z,9.05
2022-11-29T17:06:24.638Z,10.98
2022-11-29T17:09:26.248Z,10.13
2022-11-29T17:12:14.301Z,14.07
2022-11-29T17:15:00.587Z,13.10
2022-11-29T17:17:46.428Z,9.52
2022-11-29T17:20:32.266Z,11.05
2022-11-29T17:23:18.337Z,9.80
2022-11-29T17:26:04.549Z,10.30
2022-11-29T17:28:51.728Z,9.57
2022-11-29T17:31:37.378Z,10.10
2022-11-29T17:34:23.286Z,10.98
2022-11-29T17:37:09.032Z,10.57
2022-11-29T17:39:54.843Z,10.40
2022-11-29T17:42:41.636Z,10.05
2022-11-29T17:45:27.152Z,10.10
2022-11-29T17:48:13.662Z,9.13
2022-11-29T17:51:00.523Z,10.05
2022-11-29T17:53:46.534Z,9.82
2022-11-29T17:56:32.813Z,10.65
2022-11-29T17:59:18.892Z,10.05
2022-11-29T18:02:04.722Z,10.02
2022-11-29T18:04:52.874Z,10.48
2022-11-29T18:07:57.739Z,11.15
2022-11-29T18:10:44.367Z,10.05
2022-11-29T18:13:30.523Z,10.67
2022-11-29T18:16:25.429Z,10.13
2022-11-29T18:19:14.046Z,10.30
2022-11-29T18:22:01.046Z,13.50
2022-11-29T18:24:46.816Z,9.90
2022-11-29T18:27:32.967Z,9.27
2022-11-29T18:30:18.726Z,9.38
2022-11-29T18:33:04.251Z,10.05
2022-11-29T18:35:50.375Z,11.40
2022-11-29T18:38:37.758Z,12.43
2022-11-29T18:41:24.573Z,10.60
2022-11-29T18:44:13.233Z,11.07
2022-11-29T18:47:01.063Z,11.20
2022-11-29T18:49:46.593Z,10.85
2022-11-29T18:52:37.846Z,9.65
2022-11-29T18:55:26.570Z,10.10
2022-11-29T18:58:12.753Z,10.18
2022-11-29T19:01:07.499Z,10.27
2022-11-29T19:03:55.177Z,10.70
2022-11-29T19:06:41.852Z,12.45
2022-11-29T19:09:28.444Z,10.90
2022-11-29T19:12:13.943Z,11.23
2022-11-29T19:15:00.088Z,11.27
2022-11-29T19:17:45.483Z,10.73
2022-11-29T19:20:34.390Z,11.77
2022-11-29T19:23:21.404Z,10.73
2022-11-29T19:26:10.650Z,11.23
2022-11-29T19:28:57.499Z,14.10
2022-11-29T19:31:43.926Z,11.27
2022-11-29T19:34:29.870Z,10.60
2022-11-29T19:37:15.344Z,10.65
2022-11-29T19:40:02.262Z,10.77
2022-11-29T19:42:51.577Z,9.88
2022-11-29T19:45:41.066Z,10.65
2022-11-29T19:48:26.773Z,12.57
2022-11-29T19:51:17.513Z,11.00
2022-11-29T19:54:10.200Z,11.43
2022-11-29T19:56:58.062Z,10.73
2022-11-29T19:59:44.683Z,11.40
2022-11-29T20:02:30.767Z,11.60
2022-11-29T20:05:16.816Z,10.85
2022-11-29T20:08:03.298Z,10.00
2022-11-29T20:10:49.296Z,11.57
2022-11-29T20:13:35.619Z,10.77
2022-11-29T20:16:22.078Z,10.88
2022-11-29T20:19:11.805Z,12.45
2022-11-29T20:21:57.362Z,12.65
2022-11-29T20:24:45.521Z,12.25
2022-11-29T20:27:31.769Z,12.30
2022-11-29T20:30:19.075Z,10.50
2022-11-29T20:33:05.675Z,10.37
2022-11-29T20:36:00.613Z,11.65
2022-11-29T20:38:56.083Z,10.57
2022-11-29T20:41:48.095Z,10.30
2022-11-29T20:44:39.222Z,11.05
2022-11-29T20:47:31.542Z,11.07
2022-11-29T20:50:29.060Z,13.98
2022-11-29T20:53:34.906Z,11.90
2022-11-29T20:56:20.956Z,11.95
2022-11-29T20:59:06.784Z,11.80
2022-11-29T21:01:52.733Z,12.80
2022-11-29T21:04:38.408Z,13.32
2022-11-29T21:07:24.514Z,12.65
2022-11-29T21:10:11.118Z,13.73
2022-11-29T21:12:57.705Z,13.20
2022-11-29T21:15:45.859Z,12.70
2022-11-29T21:18:32.784Z,13.05
2022-11-29T21:21:28.246Z,13.50
2022-11-29T21:24:36.693Z,14.32
2022-11-29T21:27:40.790Z,12.52
2022-11-29T21:30:26.607Z,12.75
2022-11-29T21:33:12.869Z,14.18
2022-11-29T21:35:58.960Z,12.60
2022-11-29T21:38:52.332Z,15.48
2022-11-29T21:41:40.843Z,13.55
2022-11-29T21:44:27.378Z,15.95
2022-11-29T21:47:13.429Z,16.80
2022-11-29T21:49:59.880Z,16.42
2022-11-29T21:52:45.867Z,15.40
2022-11-29T21:55:32.592Z,16.60
2022-11-29T21:58:18.643Z,16.08
2022-11-29T22:01:08.547Z,16.02
2022-11-29T22:03:55.555Z,15.00
2022-11-29T22:06:41.664Z,15.18
2022-11-29T22:09:27.429Z,15.10
2022-11-29T22:12:33.104Z,16.15
2022-11-29T22:15:24.401Z,15.88
2022-11-29T22:18:11.370Z,17.13
2022-11-29T22:21:05.504Z,16.65
2022-11-29T22:23:52.446Z,15.07
2022-11-29T22:26:38.840Z,16.55
2022-11-29T22:29:25.996Z,16.67
2022-11-29T22:32:11.880Z,16.55
2022-11-29T22:34:57.764Z,17.60
2022-11-29T22:37:43.827Z,16.83
2022-11-29T22:40:29.847Z,18.42
2022-11-29T22:43:16.036Z,17.47
2022-11-29T22:46:17.905Z,17.80
2022-11-29T22:49:04.379Z,16.90
2022-11-29T22:51:50.146Z,17.73
2022-11-29T22:54:36.086Z,17.13
2022-11-29T22:57:21.651Z,17.83
2022-11-29T23:00:07.873Z,19.30
2022-11-29T23:02:57.518Z,19.33
2022-11-29T23:05:43.830Z,19.48
2022-11-29T23:08:29.903Z,18.70
2022-11-29T23:11:18.635Z,19.30
2022-11-29T23:14:05.159Z,19.42
2022-11-29T23:16:51.850Z,19.90
2022-11-29T23:19:37.879Z,21.30
2022-11-29T23:22:23.754Z,21.45
2022-11-29T23:25:09.499Z,21.45
2022-11-29T23:27:55.776Z,21.10
2022-11-29T23:30:42.225Z,21.60
2022-11-29T23:33:28.345Z,21.33
2022-11-29T23:36:15.076Z,20.83
2022-11-29T23:39:01.021Z,22.27
2022-11-29T23:41:46.851Z,20.63
2022-11-29T23:44:32.544Z,20.70
2022-11-29T23:47:18.120Z,20.17
2022-11-29T23:50:03.887Z,20.92
2022-11-29T23:52:56.579Z,21.92
2022-11-29T23:55:43.511Z,20.48
2022-11-29T23:58:30.017Z,19.67
